KSCR

Siler City Municipal Airport

Siler City, North Carolina, USA
METAR KSCR 190700Z AUTO 00000KT 10SM CLR M02/M02 A3019 RMK AO2 T10191023
Observed Flight Rules
Dec-19 @ 07:00 UTC (31 minutes ago) Visual Flight Rules
Visibility Clouds
10 miles
  • Clear skies
Temperatures Readings
Current -2°C / 28°F
Dewpoint -2°C / 28°F
Humidity 100%
Altimeter 30.19" Hg
Pressure 1022 hPa
Elevation 188
METAR KSCR 190700Z AUTO 00000KT 10SM CLR M02/M02 A3019 RMK AO2 T10191023
Observed Flight Rules
Dec-19 @ 07:00 UTC
(31 minutes ago)
VFR
Clouds
  • Clear skies
Temperature Dewpoint
-2°C / 28°F -2°C / 28°F
Humidity Altimeter Pressure
100% 30.19" Hg 1022 hPa